sensor_id;sensor_type;location;lat;lon;timestamp;temperature;humidity
11242;DHT22;5678;52.370;9.006;2024-01-06T00:01:27;6.00;99.90
11242;DHT22;5678;52.370;9.006;2024-01-06T00:03:55;6.20;99.90
11242;DHT22;5678;52.370;9.006;2024-01-06T00:06:25;6.10;99.90
11242;DHT22;5678;52.370;9.006;2024-01-06T00:08:53;6.00;99.90
11242;DHT22;5678;52.370;9.006;2024-01-06T00:11:21;6.00;99.90
11242;DHT22;5678;52.370;9.006;2024-01-06T00:13:50;6.00;99.90
11242;DHT22;5678;52.370;9.006;2024-01-06T00:16:18;6.10;99.90
11242;DHT22;5678;52.370;9.006;2024-01-06T00:18:46;6.20;99.90
11242;DHT22;5678;52.370;9.006;2024-01-06T00:21:15;6.00;99.90
11242;DHT22;5678;52.370;9.006;2024-01-06T00:23:44;6.00;99.90
11242;DHT22;5678;52.370;9.006;2024-01-06T00:26:12;6.00;99.90
11242;DHT22;5678;52.370;9.006;2024-01-06T00:28:40;6.10;99.90
11242;DHT22;5678;52.370;9.006;2024-01-06T00:31:09;5.80;99.90
11242;DHT22;5678;52.370;9.006;2024-01-06T00:33:37;6.00;99.90
11242;DHT22;5678;52.370;9.006;2024-01-06T00:36:07;5.80;99.90
11242;DHT22;5678;52.370;9.006;2024-01-06T00:38:35;5.80;99.90
11242;DHT22;5678;52.370;9.006;2024-01-06T00:41:04;6.00;99.90
11242;DHT22;5678;52.370;9.006;2024-01-06T00:43:32;6.10;99.90
11242;DHT22;5678;52.370;9.006;2024-01-06T00:46:01;5.70;99.90
11242;DHT22;5678;52.370;9.006;2024-01-06T00:48:29;5.90;99.90
11242;DHT22;5678;52.370;9.006;2024-01-06T00:50:57;6.00;99.90
11242;DHT22;5678;52.370;9.006;2024-01-06T00:53:25;6.10;99.90
11242;DHT22;5678;52.370;9.006;2024-01-06T00:55:54;6.10;99.90
11242;DHT22;5678;52.370;9.006;2024-01-06T00:58:23;6.00;99.90
11242;DHT22;5678;52.370;9.006;2024-01-06T01:00:51;5.80;99.90
11242;DHT22;5678;52.370;9.006;2024-01-06T01:03:19;5.90;99.90
11242;DHT22;5678;52.370;9.006;2024-01-06T01:05:47;6.00;99.90
11242;DHT22;5678;52.370;9.006;2024-01-06T01:08:15;5.70;99.90
11242;DHT22;5678;52.370;9.006;2024-01-06T01:10:43;5.90;99.90
11242;DHT22;5678;52.370;9.006;2024-01-06T01:13:12;5.60;99.90
11242;DHT22;5678;52.370;9.006;2024-01-06T01:15:41;5.80;99.90
11242;DHT22;5678;52.370;9.006;2024-01-06T01:18:09;5.60;99.90
11242;DHT22;5678;52.370;9.006;2024-01-06T01:20:38;5.50;99.90
11242;DHT22;5678;52.370;9.006;2024-01-06T01:23:08;5.90;99.90
11242;DHT22;5678;52.370;9.006;2024-01-06T01:25:36;5.80;99.90
11242;DHT22;5678;52.370;9.006;2024-01-06T01:28:05;5.80;99.90
11242;DHT22;5678;52.370;9.006;2024-01-06T01:30:33;5.80;99.90
11242;DHT22;5678;52.370;9.006;2024-01-06T01:33:03;5.80;99.90
11242;DHT22;5678;52.370;9.006;2024-01-06T01:35:31;5.50;99.90
11242;DHT22;5678;52.370;9.006;2024-01-06T01:37:59;5.70;99.90
11242;DHT22;5678;52.370;9.006;2024-01-06T01:40:27;5.80;99.90
11242;DHT22;5678;52.370;9.006;2024-01-06T01:42:55;5.70;99.90
11242;DHT22;5678;52.370;9.006;2024-01-06T01:45:23;4.50;99.90
11242;DHT22;5678;52.370;9.006;2024-01-06T01:47:51;5.80;99.90
11242;DHT22;5678;52.370;9.006;2024-01-06T01:50:21;5.80;99.90
11242;DHT22;5678;52.370;9.006;2024-01-06T01:52:50;5.80;99.90
11242;DHT22;5678;52.370;9.006;2024-01-06T01:55:18;5.70;99.90
11242;DHT22;5678;52.370;9.006;2024-01-06T01:57:46;5.50;99.90
11242;DHT22;5678;52.370;9.006;2024-01-06T02:00:15;5.90;99.90
11242;DHT22;5678;52.370;9.006;2024-01-06T02:02:43;5.50;99.90
11242;DHT22;5678;52.370;9.006;2024-01-06T02:05:11;6.00;99.90
11242;DHT22;5678;52.370;9.006;2024-01-06T02:07:41;5.60;99.90
11242;DHT22;5678;52.370;9.006;2024-01-06T02:10:09;5.70;99.90
11242;DHT22;5678;52.370;9.006;2024-01-06T02:12:37;5.40;99.90
11242;DHT22;5678;52.370;9.006;2024-01-06T02:15:05;5.50;99.90
11242;DHT22;5678;52.370;9.006;2024-01-06T02:17:33;5.50;99.90
11242;DHT22;5678;52.370;9.006;2024-01-06T02:20:01;5.60;99.90
11242;DHT22;5678;52.370;9.006;2024-01-06T02:22:30;5.70;99.90
11242;DHT22;5678;52.370;9.006;2024-01-06T02:24:58;5.80;99.90
11242;DHT22;5678;52.370;9.006;2024-01-06T02:27:27;5.70;99.90
11242;DHT22;5678;52.370;9.006;2024-01-06T02:29:55;5.60;99.90
11242;DHT22;5678;52.370;9.006;2024-01-06T02:32:23;5.50;99.90
11242;DHT22;5678;52.370;9.006;2024-01-06T02:34:51;5.40;99.90
11242;DHT22;5678;52.370;9.006;2024-01-06T02:37:19;5.40;99.90
11242;DHT22;5678;52.370;9.006;2024-01-06T02:39:48;5.60;99.90
11242;DHT22;5678;52.370;9.006;2024-01-06T02:42:16;5.60;99.90
11242;DHT22;5678;52.370;9.006;2024-01-06T02:44:44;5.50;99.90
11242;DHT22;5678;52.370;9.006;2024-01-06T02:47:12;5.40;99.90
11242;DHT22;5678;52.370;9.006;2024-01-06T02:49:40;5.50;99.90
11242;DHT22;5678;52.370;9.006;2024-01-06T02:52:09;5.50;99.90
11242;DHT22;5678;52.370;9.006;2024-01-06T02:54:37;5.30;99.90
11242;DHT22;5678;52.370;9.006;2024-01-06T02:57:06;5.40;99.90
11242;DHT22;5678;52.370;9.006;2024-01-06T02:59:34;5.50;99.90
11242;DHT22;5678;52.370;9.006;2024-01-06T03:02:03;5.60;99.90
11242;DHT22;5678;52.370;9.006;2024-01-06T03:04:31;5.10;99.90
11242;DHT22;5678;52.370;9.006;2024-01-06T03:06:59;5.40;99.90
11242;DHT22;5678;52.370;9.006;2024-01-06T03:09:27;5.40;99.90
11242;DHT22;5678;52.370;9.006;2024-01-06T03:11:55;5.60;99.90
11242;DHT22;5678;52.370;9.006;2024-01-06T03:14:24;5.20;99.90
11242;DHT22;5678;52.370;9.006;2024-01-06T03:16:52;5.50;99.90
11242;DHT22;5678;52.370;9.006;2024-01-06T03:19:20;5.30;99.90
11242;DHT22;5678;52.370;9.006;2024-01-06T03:21:53;5.70;99.90
11242;DHT22;5678;52.370;9.006;2024-01-06T03:24:21;5.40;99.90
11242;DHT22;5678;52.370;9.006;2024-01-06T03:26:49;5.40;99.90
11242;DHT22;5678;52.370;9.006;2024-01-06T03:29:17;5.50;99.90
11242;DHT22;5678;52.370;9.006;2024-01-06T03:31:47;5.50;99.90
11242;DHT22;5678;52.370;9.006;2024-01-06T14:26:19;2.40;99.90
11242;DHT22;5678;52.370;9.006;2024-01-06T14:28:47;2.20;99.90
11242;DHT22;5678;52.370;9.006;2024-01-06T14:31:16;2.10;99.90
11242;DHT22;5678;52.370;9.006;2024-01-06T14:33:44;2.20;99.90
11242;DHT22;5678;52.370;9.006;2024-01-06T14:36:12;2.20;99.90
11242;DHT22;5678;52.370;9.006;2024-01-06T14:38:41;2.00;99.90
11242;DHT22;5678;52.370;9.006;2024-01-06T14:41:09;1.20;99.90
11242;DHT22;5678;52.370;9.006;2024-01-06T14:43:38;2.40;99.90
11242;DHT22;5678;52.370;9.006;2024-01-06T14:46:06;1.90;99.90
11242;DHT22;5678;52.370;9.006;2024-01-06T14:48:34;1.90;99.90
11242;DHT22;5678;52.370;9.006;2024-01-06T14:51:03;1.90;99.90
11242;DHT22;5678;52.370;9.006;2024-01-06T14:53:31;1.90;99.90
11242;DHT22;5678;52.370;9.006;2024-01-06T14:56:01;1.80;99.90
11242;DHT22;5678;52.370;9.006;2024-01-06T14:58:30;1.90;99.90
11242;DHT22;5678;52.370;9.006;2024-01-06T15:01:00;2.30;99.90
11242;DHT22;5678;52.370;9.006;2024-01-06T15:03:28;2.50;99.90
11242;DHT22;5678;52.370;9.006;2024-01-06T15:05:57;2.60;99.90
11242;DHT22;5678;52.370;9.006;2024-01-06T15:08:25;2.00;99.90
11242;DHT22;5678;52.370;9.006;2024-01-06T15:10:54;1.80;99.90
11242;DHT22;5678;52.370;9.006;2024-01-06T15:13:22;1.90;99.90
11242;DHT22;5678;52.370;9.006;2024-01-06T15:15:50;1.00;99.90
11242;DHT22;5678;52.370;9.006;2024-01-06T15:18:23;1.80;99.90
11242;DHT22;5678;52.370;9.006;2024-01-06T15:20:51;1.70;99.90
11242;DHT22;5678;52.370;9.006;2024-01-06T15:23:19;1.80;99.90
11242;DHT22;5678;52.370;9.006;2024-01-06T15:25:48;1.80;99.90
11242;DHT22;5678;52.370;9.006;2024-01-06T15:28:16;1.70;99.90
11242;DHT22;5678;52.370;9.006;2024-01-06T15:30:44;1.60;99.90
11242;DHT22;5678;52.370;9.006;2024-01-06T15:33:12;1.60;99.90
11242;DHT22;5678;52.370;9.006;2024-01-06T15:35:44;1.60;99.90
11242;DHT22;5678;52.370;9.006;2024-01-06T15:38:12;2.10;99.90
11242;DHT22;5678;52.370;9.006;2024-01-06T15:40:40;1.50;99.90
11242;DHT22;5678;52.370;9.006;2024-01-06T15:43:08;2.30;99.90
11242;DHT22;5678;52.370;9.006;2024-01-06T15:45:36;1.60;99.90
11242;DHT22;5678;52.370;9.006;2024-01-06T15:48:05;1.40;99.90
11242;DHT22;5678;52.370;9.006;2024-01-06T15:50:34;1.40;99.90
11242;DHT22;5678;52.370;9.006;2024-01-06T15:53:04;1.40;99.90
11242;DHT22;5678;52.370;9.006;2024-01-06T15:55:32;1.40;99.90
11242;DHT22;5678;52.370;9.006;2024-01-06T15:58:00;1.30;99.90
11242;DHT22;5678;52.370;9.006;2024-01-06T16:00:28;1.30;99.90
11242;DHT22;5678;52.370;9.006;2024-01-06T16:02:59;1.30;99.90
11242;DHT22;5678;52.370;9.006;2024-01-06T16:05:27;1.30;99.90
11242;DHT22;5678;52.370;9.006;2024-01-06T16:07:56;1.30;99.90
11242;DHT22;5678;52.370;9.006;2024-01-06T16:10:28;1.30;99.90
11242;DHT22;5678;52.370;9.006;2024-01-06T16:12:56;1.70;99.90
11242;DHT22;5678;52.370;9.006;2024-01-06T16:15:26;1.60;99.90
11242;DHT22;5678;52.370;9.006;2024-01-06T16:17:54;1.20;99.90
11242;DHT22;5678;52.370;9.006;2024-01-06T16:20:22;1.40;99.90
11242;DHT22;5678;52.370;9.006;2024-01-06T16:22:50;1.40;99.90
11242;DHT22;5678;52.370;9.006;2024-01-06T16:25:20;1.30;99.90
11242;DHT22;5678;52.370;9.006;2024-01-06T16:27:49;1.40;99.90
11242;DHT22;5678;52.370;9.006;2024-01-06T16:30:17;1.50;99.90
11242;DHT22;5678;52.370;9.006;2024-01-06T16:32:46;1.40;99.90
11242;DHT22;5678;52.370;9.006;2024-01-06T16:35:14;1.50;99.90
11242;DHT22;5678;52.370;9.006;2024-01-06T16:37:42;1.40;99.90
11242;DHT22;5678;52.370;9.006;2024-01-06T16:40:11;1.50;99.90
11242;DHT22;5678;52.370;9.006;2024-01-06T16:42:39;1.30;99.90
11242;DHT22;5678;52.370;9.006;2024-01-06T16:45:09;1.30;99.90
11242;DHT22;5678;52.370;9.006;2024-01-06T16:47:38;1.80;99.90
11242;DHT22;5678;52.370;9.006;2024-01-06T16:50:07;1.20;99.90
11242;DHT22;5678;52.370;9.006;2024-01-06T16:52:35;1.30;99.90
11242;DHT22;5678;52.370;9.006;2024-01-06T16:55:05;1.20;99.90
11242;DHT22;5678;52.370;9.006;2024-01-06T16:57:34;1.20;99.90
11242;DHT22;5678;52.370;9.006;2024-01-06T17:00:03;1.10;99.90
11242;DHT22;5678;52.370;9.006;2024-01-06T17:02:33;1.20;99.90
11242;DHT22;5678;52.370;9.006;2024-01-06T17:05:02;1.20;99.90
11242;DHT22;5678;52.370;9.006;2024-01-06T17:07:30;1.20;99.90
11242;DHT22;5678;52.370;9.006;2024-01-06T17:09:58;1.20;99.90
11242;DHT22;5678;52.370;9.006;2024-01-06T17:12:29;1.00;99.90
11242;DHT22;5678;52.370;9.006;2024-01-06T17:14:57;1.00;99.90
11242;DHT22;5678;52.370;9.006;2024-01-06T17:17:26;1.10;99.90
11242;DHT22;5678;52.370;9.006;2024-01-06T17:19:56;1.10;99.90
11242;DHT22;5678;52.370;9.006;2024-01-06T17:22:25;1.10;99.90
11242;DHT22;5678;52.370;9.006;2024-01-06T17:24:53;1.00;99.90
11242;DHT22;5678;52.370;9.006;2024-01-06T17:27:21;1.40;99.90
11242;DHT22;5678;52.370;9.006;2024-01-06T17:29:49;0.90;99.90
11242;DHT22;5678;52.370;9.006;2024-01-06T17:32:18;1.40;99.90
11242;DHT22;5678;52.370;9.006;2024-01-06T17:34:47;0.90;99.90
11242;DHT22;5678;52.370;9.006;2024-01-06T17:37:16;0.90;99.90
11242;DHT22;5678;52.370;9.006;2024-01-06T17:39:45;1.00;99.90
11242;DHT22;5678;52.370;9.006;2024-01-06T17:42:13;0.90;99.90
11242;DHT22;5678;52.370;9.006;2024-01-06T17:44:41;1.10;99.90
11242;DHT22;5678;52.370;9.006;2024-01-06T17:47:11;0.90;99.90
11242;DHT22;5678;52.370;9.006;2024-01-06T17:49:40;1.00;99.90
11242;DHT22;5678;52.370;9.006;2024-01-06T17:52:09;1.20;99.90
11242;DHT22;5678;52.370;9.006;2024-01-06T17:54:41;0.80;99.90
11242;DHT22;5678;52.370;9.006;2024-01-06T17:57:09;0.80;99.90
11242;DHT22;5678;52.370;9.006;2024-01-06T17:59:44;0.80;99.90
11242;DHT22;5678;52.370;9.006;2024-01-06T18:02:13;0.70;99.90
11242;DHT22;5678;52.370;9.006;2024-01-06T18:04:41;0.70;99.90
11242;DHT22;5678;52.370;9.006;2024-01-06T18:07:09;0.60;99.90
11242;DHT22;5678;52.370;9.006;2024-01-06T18:09:39;0.60;99.90
11242;DHT22;5678;52.370;9.006;2024-01-06T18:12:08;0.60;99.90
11242;DHT22;5678;52.370;9.006;2024-01-06T18:14:37;0.60;99.90
11242;DHT22;5678;52.370;9.006;2024-01-06T18:17:05;0.60;99.90
11242;DHT22;5678;52.370;9.006;2024-01-06T18:19:34;0.50;99.90
11242;DHT22;5678;52.370;9.006;2024-01-06T18:22:03;0.40;99.90
11242;DHT22;5678;52.370;9.006;2024-01-06T18:24:31;0.50;99.90
11242;DHT22;5678;52.370;9.006;2024-01-06T18:27:01;0.50;99.90
11242;DHT22;5678;52.370;9.006;2024-01-06T18:29:29;0.50;99.90
11242;DHT22;5678;52.370;9.006;2024-01-06T18:32:00;0.50;99.90
11242;DHT22;5678;52.370;9.006;2024-01-06T18:34:28;0.50;99.90
11242;DHT22;5678;52.370;9.006;2024-01-06T18:36:57;0.50;99.90
11242;DHT22;5678;52.370;9.006;2024-01-06T18:39:25;0.50;99.90
11242;DHT22;5678;52.370;9.006;2024-01-06T18:41:53;0.50;99.90
11242;DHT22;5678;52.370;9.006;2024-01-06T18:44:23;0.50;99.90
11242;DHT22;5678;52.370;9.006;2024-01-06T18:46:51;0.50;99.90
11242;DHT22;5678;52.370;9.006;2024-01-06T18:49:19;0.50;99.90
11242;DHT22;5678;52.370;9.006;2024-01-06T18:51:47;0.50;99.90
11242;DHT22;5678;52.370;9.006;2024-01-06T18:54:16;0.50;99.90
11242;DHT22;5678;52.370;9.006;2024-01-06T18:56:56;0.40;99.90
11242;DHT22;5678;52.370;9.006;2024-01-06T18:59:26;0.60;99.90
11242;DHT22;5678;52.370;9.006;2024-01-06T19:01:54;0.50;99.90
11242;DHT22;5678;52.370;9.006;2024-01-06T19:04:23;0.50;99.90
11242;DHT22;5678;52.370;9.006;2024-01-06T19:06:52;1.00;99.90
11242;DHT22;5678;52.370;9.006;2024-01-06T19:09:20;0.40;99.90
11242;DHT22;5678;52.370;9.006;2024-01-06T19:11:48;0.30;99.90
11242;DHT22;5678;52.370;9.006;2024-01-06T19:14:16;0.50;99.90
11242;DHT22;5678;52.370;9.006;2024-01-06T19:16:46;-0.20;99.90
11242;DHT22;5678;52.370;9.006;2024-01-06T19:19:15;0.40;99.90
11242;DHT22;5678;52.370;9.006;2024-01-06T19:21:48;0.60;99.90
11242;DHT22;5678;52.370;9.006;2024-01-06T19:24:16;0.50;99.90
11242;DHT22;5678;52.370;9.006;2024-01-06T19:26:58;0.30;99.90
11242;DHT22;5678;52.370;9.006;2024-01-06T19:29:26;0.40;99.90
11242;DHT22;5678;52.370;9.006;2024-01-06T19:31:57;0.50;99.90
11242;DHT22;5678;52.370;9.006;2024-01-06T19:34:25;0.50;99.90
11242;DHT22;5678;52.370;9.006;2024-01-06T19:36:53;0.30;99.90
11242;DHT22;5678;52.370;9.006;2024-01-06T19:39:21;0.40;99.90
11242;DHT22;5678;52.370;9.006;2024-01-06T19:41:51;0.30;99.90
11242;DHT22;5678;52.370;9.006;2024-01-06T19:44:19;0.30;99.90
11242;DHT22;5678;52.370;9.006;2024-01-06T19:46:47;0.30;99.90
11242;DHT22;5678;52.370;9.006;2024-01-06T19:49:17;0.30;99.90
11242;DHT22;5678;52.370;9.006;2024-01-06T19:51:45;0.20;99.90
11242;DHT22;5678;52.370;9.006;2024-01-06T19:54:15;0.20;99.90
11242;DHT22;5678;52.370;9.006;2024-01-06T19:56:44;0.20;99.90
11242;DHT22;5678;52.370;9.006;2024-01-06T19:59:12;0.10;99.90
11242;DHT22;5678;52.370;9.006;2024-01-06T20:01:40;0.20;99.90
11242;DHT22;5678;52.370;9.006;2024-01-06T20:04:08;0.10;99.90
11242;DHT22;5678;52.370;9.006;2024-01-06T20:06:38;0.10;99.90
11242;DHT22;5678;52.370;9.006;2024-01-06T20:09:06;0.10;99.90
11242;DHT22;5678;52.370;9.006;2024-01-06T20:11:35;0.10;99.90
11242;DHT22;5678;52.370;9.006;2024-01-06T20:14:03;0.10;99.90
11242;DHT22;5678;52.370;9.006;2024-01-06T20:16:31;0.00;99.90
11242;DHT22;5678;52.370;9.006;2024-01-06T20:18:59;0.10;99.90
11242;DHT22;5678;52.370;9.006;2024-01-06T20:21:27;0.20;99.90
11242;DHT22;5678;52.370;9.006;2024-01-06T20:28:57;0.10;99.90
11242;DHT22;5678;52.370;9.006;2024-01-06T20:33:55;0.20;99.90
11242;DHT22;5678;52.370;9.006;2024-01-06T20:36:23;0.10;99.90
11242;DHT22;5678;52.370;9.006;2024-01-06T20:38:51;0.00;99.90
11242;DHT22;5678;52.370;9.006;2024-01-06T20:41:21;0.10;99.90
11242;DHT22;5678;52.370;9.006;2024-01-06T20:43:49;0.10;99.90
11242;DHT22;5678;52.370;9.006;2024-01-06T20:46:17;0.10;99.90
11242;DHT22;5678;52.370;9.006;2024-01-06T20:48:45;0.10;99.90
11242;DHT22;5678;52.370;9.006;2024-01-06T20:51:16;0.00;99.90
11242;DHT22;5678;52.370;9.006;2024-01-06T20:53:44;0.00;99.90
11242;DHT22;5678;52.370;9.006;2024-01-06T20:56:12;0.00;99.90
11242;DHT22;5678;52.370;9.006;2024-01-06T20:58:43;0.00;99.90
11242;DHT22;5678;52.370;9.006;2024-01-06T21:01:11;0.10;99.90
11242;DHT22;5678;52.370;9.006;2024-01-06T21:03:40;0.00;99.90
11242;DHT22;5678;52.370;9.006;2024-01-06T21:13:36;-0.10;99.90
11242;DHT22;5678;52.370;9.006;2024-01-06T21:16:06;-0.10;99.90
11242;DHT22;5678;52.370;9.006;2024-01-06T21:18:37;-0.10;99.90
11242;DHT22;5678;52.370;9.006;2024-01-06T21:21:05;0.00;99.90
11242;DHT22;5678;52.370;9.006;2024-01-06T21:23:33;-0.10;99.90
11242;DHT22;5678;52.370;9.006;2024-01-06T21:26:14;-0.20;99.90
11242;DHT22;5678;52.370;9.006;2024-01-06T21:28:42;-0.10;99.90
11242;DHT22;5678;52.370;9.006;2024-01-06T21:31:12;-0.10;99.90
11242;DHT22;5678;52.370;9.006;2024-01-06T21:33:42;-0.10;99.90
11242;DHT22;5678;52.370;9.006;2024-01-06T21:36:10;-0.20;99.90
11242;DHT22;5678;52.370;9.006;2024-01-06T21:53:37;-0.10;99.90
11242;DHT22;5678;52.370;9.006;2024-01-06T21:56:05;-0.10;99.90
11242;DHT22;5678;52.370;9.006;2024-01-06T21:58:34;-0.10;99.90
11242;DHT22;5678;52.370;9.006;2024-01-06T22:01:02;-0.20;99.90
11242;DHT22;5678;52.370;9.006;2024-01-06T22:03:30;-0.20;99.90
11242;DHT22;5678;52.370;9.006;2024-01-06T22:06:00;-0.10;99.90
11242;DHT22;5678;52.370;9.006;2024-01-06T22:08:28;-0.10;99.90
11242;DHT22;5678;52.370;9.006;2024-01-06T22:10:56;-0.20;99.90
11242;DHT22;5678;52.370;9.006;2024-01-06T22:13:24;-0.10;99.90
11242;DHT22;5678;52.370;9.006;2024-01-06T22:15:52;0.00;99.90
11242;DHT22;5678;52.370;9.006;2024-01-06T22:25:51;-0.10;99.90
11242;DHT22;5678;52.370;9.006;2024-01-06T22:33:17;-0.20;99.90
11242;DHT22;5678;52.370;9.006;2024-01-06T22:35:45;-0.20;99.90
11242;DHT22;5678;52.370;9.006;2024-01-06T22:40:44;-0.20;99.90
11242;DHT22;5678;52.370;9.006;2024-01-06T22:43:12;-0.20;99.90
11242;DHT22;5678;52.370;9.006;2024-01-06T22:45:40;-0.30;99.90
11242;DHT22;5678;52.370;9.006;2024-01-06T22:48:08;-0.40;99.90
11242;DHT22;5678;52.370;9.006;2024-01-06T22:50:36;-0.20;99.90
11242;DHT22;5678;52.370;9.006;2024-01-06T22:55:34;-0.20;99.90
11242;DHT22;5678;52.370;9.006;2024-01-06T23:00:33;-0.30;99.90
11242;DHT22;5678;52.370;9.006;2024-01-06T23:03:04;-0.30;99.90
11242;DHT22;5678;52.370;9.006;2024-01-06T23:05:33;-0.40;99.90
11242;DHT22;5678;52.370;9.006;2024-01-06T23:08:01;-0.30;99.90
11242;DHT22;5678;52.370;9.006;2024-01-06T23:10:30;-0.30;99.90
11242;DHT22;5678;52.370;9.006;2024-01-06T23:12:58;-0.30;99.90
11242;DHT22;5678;52.370;9.006;2024-01-06T23:17:58;-0.50;99.90
11242;DHT22;5678;52.370;9.006;2024-01-06T23:23:49;-0.40;99.90
11242;DHT22;5678;52.370;9.006;2024-01-06T23:26:17;-0.40;99.90
11242;DHT22;5678;52.370;9.006;2024-01-06T23:28:45;-0.30;99.90
11242;DHT22;5678;52.370;9.006;2024-01-06T23:31:15;-0.40;99.90
11242;DHT22;5678;52.370;9.006;2024-01-06T23:33:43;-0.40;99.90
11242;DHT22;5678;52.370;9.006;2024-01-06T23:40:00;-0.20;99.90
11242;DHT22;5678;52.370;9.006;2024-01-06T23:43:14;-0.30;99.90
11242;DHT22;5678;52.370;9.006;2024-01-06T23:45:50;-0.40;99.90
11242;DHT22;5678;52.370;9.006;2024-01-06T23:48:42;-0.50;99.90
11242;DHT22;5678;52.370;9.006;2024-01-06T23:51:26;-0.40;99.90
11242;DHT22;5678;52.370;9.006;2024-01-06T23:53:55;-0.40;99.90
11242;DHT22;5678;52.370;9.006;2024-01-06T23:56:23;-0.50;99.90
11242;DHT22;5678;52.370;9.006;2024-01-06T23:59:00;-0.50;99.90
